TimeEST,TemperatureF,Dew PointF,Humidity,Sea Level PressureIn,VisibilityMPH,Wind Direction,Wind SpeedMPH,Gust SpeedMPH,PrecipitationIn,Events,Conditions,WindDirDegrees,DateUTC
12:05 AM,21.2,15.8,80,30.24,9.0,WSW,9.2,-,N/A,,Overcast,240,2013-02-21 05:05:00
12:54 AM,21.9,16.0,78,30.27,8.0,West,5.8,-,0.00,,Overcast,280,2013-02-21 05:54:00
1:54 AM,21.9,16.0,78,30.28,10.0,West,5.8,-,0.00,,Overcast,270,2013-02-21 06:54:00
2:54 AM,21.9,15.1,75,30.29,10.0,NW,8.1,-,N/A,,Overcast,320,2013-02-21 07:54:00
3:54 AM,21.9,10.9,63,30.29,10.0,NW,8.1,-,N/A,,Overcast,310,2013-02-21 08:54:00
4:54 AM,21.9,12.0,66,30.30,10.0,NNW,4.6,-,N/A,,Overcast,330,2013-02-21 09:54:00
5:54 AM,21.9,12.0,66,30.31,10.0,NW,5.8,-,N/A,,Overcast,310,2013-02-21 10:54:00
6:54 AM,21.9,12.9,68,30.33,10.0,NW,4.6,-,N/A,,Overcast,320,2013-02-21 11:54:00
7:54 AM,21.9,14.0,72,30.34,10.0,NNW,5.8,-,N/A,,Overcast,340,2013-02-21 12:54:00
8:54 AM,23.0,14.0,68,30.36,10.0,NNW,6.9,-,N/A,,Overcast,330,2013-02-21 13:54:00
9:54 AM,23.0,14.0,68,30.37,10.0,NNW,6.9,-,N/A,,Overcast,340,2013-02-21 14:54:00
10:54 AM,23.0,14.0,68,30.38,10.0,NW,5.8,-,N/A,,Overcast,320,2013-02-21 15:54:00
11:54 AM,24.1,14.0,65,30.38,10.0,Calm,Calm,-,N/A,,Overcast,0,2013-02-21 16:54:00
12:54 PM,25.0,14.0,63,30.35,10.0,NNE,3.5,-,N/A,,Overcast,30,2013-02-21 17:54:00
1:54 PM,26.1,16.0,66,30.32,10.0,NE,4.6,-,N/A,,Overcast,50,2013-02-21 18:54:00
2:54 PM,27.0,16.0,63,30.28,10.0,East,6.9,-,N/A,,Overcast,80,2013-02-21 19:54:00
3:54 PM,30.0,18.0,61,30.28,10.0,ENE,9.2,-,N/A,,Mostly Cloudy,70,2013-02-21 20:54:00
4:54 PM,28.0,17.1,63,30.32,10.0,East,4.6,-,N/A,,Overcast,100,2013-02-21 21:54:00
5:19 PM,28.4,17.6,64,30.27,10.0,ENE,8.1,-,N/A,,Scattered Clouds,60,2013-02-21 22:19:00
5:54 PM,28.0,17.1,63,30.31,10.0,ENE,5.8,-,N/A,,Partly Cloudy,60,2013-02-21 22:54:00
6:54 PM,26.1,17.1,69,30.31,10.0,East,6.9,-,N/A,,Clear,80,2013-02-21 23:54:00
7:54 PM,26.1,16.0,66,30.30,10.0,ENE,9.2,-,N/A,,Clear,70,2013-02-22 00:54:00
8:54 PM,25.0,15.1,66,30.27,10.0,ENE,9.2,-,N/A,,Clear,70,2013-02-22 01:54:00
9:54 PM,25.0,16.0,69,30.26,10.0,East,9.2,-,N/A,,Clear,80,2013-02-22 02:54:00
10:54 PM,26.1,16.0,66,30.25,10.0,East,6.9,-,N/A,,Clear,80,2013-02-22 03:54:00
11:54 PM,26.1,16.0,66,30.25,10.0,East,9.2,-,N/A,,Clear,90,2013-02-22 04:54:00